KCTY/CTY METAR and TAF weather

Enter ICAO airport designator
Station Type Date Time Source
KCTY METAR 2019/02/23 03:15 UTC NOAA

KCTY 230315Z AUTO 00000KT 10SM CLR 18/18 A3016 RMK AO2 T01850179


Station Type Date Time Source
KCTY Decoded METAR 2019/02/23 03:15 UTC NOAA

CROSS CITY AIRPORT, FL, United States (KCTY) 29-38N 083-06W 12M
Feb 22, 2019 - 10:15 PM EST / 2019.02.23 0315 UTC
Wind: Calm:0
Visibility: 10 mile(s):0
Sky conditions: clear
Temperature: 65.3 F (18.5 C)
Dew Point: 64.2 F (17.9 C)
Relative Humidity: 96%
Pressure (altimeter): 30.16 in. Hg (1021 hPa)
ob: KCTY 230315Z AUTO 00000KT 10SM CLR 18/18 A3016 RMK AO2 T01850179
cycle: 3

Station Type Date Time Source
KCTY TAF UTC NOAA

Error!


Example: see airport list